W8UFO-13 Weather Reports


Display with metric or nautical units.
time (UTC)temp
F
wind
direction
speed
MPH
gust
MPH
rain 1hr
in
rain 24hr
in
rain mn
in
humidity
%
barometer
mb
20220627103916 71 0.0 0.0 0.00 0.35 0.24 95 1020.8
20220627103416 71 0.0 0.0 0.00 0.35 0.24 95 1020.8
20220627102920 71 0.0 0.0 0.00 0.35 0.24 95 1020.8
20220627102420 71 0.0 0.0 0.00 0.35 0.24 95 1020.9
20220627101920 71 0.0 0.0 0.01 0.35 0.24 95 1020.9
20220627101415 71 0.0 0.0 0.01 0.35 0.24 95 1020.9
20220627100915 71 0.0 0.0 0.01 0.35 0.24 95 1020.9
20220627100415 71 0.0 0.0 0.01 0.35 0.24 95 1020.8
20220627095916 71 0.0 0.0 0.01 0.35 0.24 95 1020.8
20220627095415 71 0.0 0.0 0.01 0.35 0.24 95 1020.7
20220627094915 71 0.0 0.0 0.02 0.35 0.24 95 1020.7
20220627094415 71 0.0 0.0 0.04 0.35 0.24 95 1020.7
20220627093915 71 0.0 0.0 0.04 0.35 0.24 95 1020.7
20220627093416 71 0.0 0.0 0.04 0.35 0.24 95 1020.7
20220627092915 71 0.0 0.0 0.04 0.35 0.24 95 1020.7
20220627092416 71 0.0 0.0 0.04 0.35 0.24 95 1020.7
20220627091915 71 0.0 0.0 0.03 0.34 0.23 95 1020.6
20220627091415 71 0.0 0.0 0.03 0.34 0.23 95 1020.6
20220627090916 71 0.0 0.0 0.03 0.34 0.23 95 1020.6
20220627090415 72 0.0 0.0 0.03 0.34 0.23 95 1020.6
20220627085915 72 0.0 0.0 0.03 0.34 0.23 95 1020.7
20220627085416 72 0.0 0.0 0.03 0.34 0.23 95 1020.6
20220627084915 72 0.0 0.0 0.02 0.33 0.22 95 1020.7
20220627084416 72 0.0 0.0 0.01 0.31 0.20 95 1020.7
20220627083920 72 0.0 0.0 0.01 0.31 0.20 95 1020.6
20220627083420 72 0.0 0.0 0.01 0.31 0.20 95 1020.7
20220627082915 72 0.0 0.0 0.01 0.31 0.20 95 1020.6
20220627082415 72 0.0 0.0 0.06 0.31 0.20 95 1020.6
20220627081921 72 0.0 0.0 0.18 0.31 0.20 95 1020.6
20220627081415 72 0.0 0.0 0.20 0.31 0.20 95 1020.5
20220627080915 72 0.0 0.0 0.20 0.31 0.20 95 1020.6
20220627080415 72 0.0 0.0 0.20 0.31 0.20 95 1020.6
20220627075915 72 0.0 0.0 0.20 0.31 0.20 95 1020.7
20220627075416 72 0.0 0.0 0.20 0.31 0.20 95 1020.8
20220627074915 72 0.0 0.0 0.20 0.31 0.20 95 1020.7
20220627074420 72 0.0 0.0 0.19 0.30 0.19 95 1020.7
20220627073915 72 0.0 0.0 0.19 0.30 0.19 95 1020.8
20220627073415 72 0.0 0.0 0.19 0.30 0.19 95 1020.7
20220627072915 72 0.0 0.0 0.19 0.30 0.19 95 1020.8
20220627072415 72 0.0 0.0 0.14 0.25 0.14 95 1020.8
20220627071916 72 0.0 0.0 0.02 0.13 0.02 95 1021.0
20220627071415 72 0.0 0.0 0.00 0.11 0.00 95 1020.9
20220627070920 72 0.0 0.0 0.00 0.11 0.00 95 1021.0
20220627070415 72 0.0 0.0 0.00 0.11 0.00 95 1021.0
20220627065915 72 0.0 0.0 0.00 0.11 0.00 95 1020.8
20220627065415 72 0.0 0.0 0.00 0.11 0.00 95 1020.9
20220627064915 72 0.0 0.0 0.00 0.11 0.00 95 1021.0
20220627064420 72 0.0 0.0 0.00 0.11 0.00 95 1020.9
20220627063915 71 0.0 0.0 0.00 0.11 0.00 95 1021.0
20220627063420 71 0.0 0.0 0.00 0.11 0.00 95 1020.9
20220627062915 71 0.0 0.0 0.00 0.11 0.00 95 1020.9
20220627062416 71 0.0 0.0 0.00 0.11 0.00 95 1020.9
20220627061915 71 0.0 0.0 0.00 0.11 0.00 95 1021.0
20220627061418 71 0.0 0.0 0.00 0.11 0.00 95 1020.9
20220627060918 71 0.0 0.0 0.00 0.11 0.00 95 1021.0
20220627060418 71 0.0 0.0 0.00 0.11 0.00 95 1020.9
20220627055915 71 0.0 0.0 0.00 0.11 0.00 95 1021.0
20220627055416 71 0.0 0.0 0.00 0.11 0.00 95 1021.1
20220627054915 71 0.0 0.0 0.00 0.11 0.00 95 1021.1
20220627054415 71 0.0 0.0 0.00 0.11 0.00 95 1021.2
20220627053915 71 0.0 0.0 0.00 0.11 0.00 95 1021.1
20220627053415 71 0.0 0.0 0.00 0.11 0.00 94 1021.2
20220627052915 71 0.0 0.0 0.00 0.11 0.00 94 1021.2
20220627052415 71 0.0 0.0 0.00 0.11 0.00 94 1021.3
20220627051915 71 0.0 0.0 0.00 0.11 0.00 94 1021.2
20220627051415 71 0.0 0.0 0.00 0.11 0.00 94 1021.2
20220627050915 71 0.0 0.0 0.00 0.11 0.00 94 1021.3
20220627050415 71 0.0 0.0 0.00 0.11 0.00 94 1021.3
20220627045915 71 0.0 0.0 0.00 0.11 0.00 94 1021.2
20220627045416 71 0.0 0.0 0.00 0.11 0.00 94 1021.3
20220627044915 71 0.0 0.0 0.00 0.11 0.00 94 1021.2
20220627044415 71 0.0 0.0 0.00 0.11 0.00 94 1021.1
20220627043915 71 0.0 0.0 0.00 0.11 0.00 94 1021.1
20220627043415 71 0.0 0.0 0.00 0.11 0.00 94 1021.1
20220627042915 71 0.0 0.0 0.00 0.11 0.00 94 1021.0
20220627042416 71 0.0 0.0 0.00 0.11 0.00 94 1021.1
20220627041916 71 0.0 0.0 0.00 0.11 0.00 94 1021.1
20220627041415 71 0.0 0.0 0.00 0.11 0.00 94 1021.2
20220627040915 71 0.0 0.0 0.00 0.11 0.00 94 1021.3
20220627040415 71 0.0 0.0 0.00 0.11 0.00 94 1021.2
20220627035916 71 0.0 0.0 0.00 0.11 0.11 94 1021.2
20220627035417 71 0.0 0.0 0.00 0.11 0.11 94 1021.2
20220627034917 71 0.0 0.0 0.00 0.11 0.11 94 1021.2
20220627034416 71 0.0 0.0 0.00 0.11 0.11 94 1021.2
20220627033916 71 0.0 0.0 0.00 0.11 0.11 94 1021.2
20220627033416 71 0.0 0.0 0.00 0.11 0.11 94 1021.1
20220627032916 71 0.0 0.0 0.00 0.11 0.11 94 1021.2
20220627032416 71 0.0 0.0 0.00 0.11 0.11 93 1021.3
20220627031917 71 0.0 0.0 0.00 0.11 0.11 93 1021.4
20220627031416 71 0.0 0.0 0.00 0.11 0.11 93 1021.4
20220627030916 71 0.0 0.0 0.01 0.11 0.11 93 1021.4
20220627030417 71 0.0 0.0 0.01 0.11 0.11 93 1021.4
20220627025916 71 0.0 0.0 0.01 0.11 0.11 93 1021.4
20220627025416 71 0.0 0.0 0.01 0.11 0.11 93 1021.5
20220627024917 71 0.0 0.0 0.01 0.11 0.11 93 1021.4
20220627024416 71 0.0 0.0 0.01 0.11 0.11 93 1021.5
20220627023916 71 0.0 0.0 0.01 0.11 0.11 93 1021.5
20220627023416 71 0.0 0.0 0.01 0.11 0.11 93 1021.5
20220627022916 72 0.0 0.0 0.02 0.11 0.11 93 1021.5
20220627022416 72 0.0 0.0 0.02 0.11 0.11 93 1021.5
20220627021916 72 0.0 0.0 0.02 0.11 0.11 93 1021.3
20220627021417 72 0.0 0.0 0.03 0.11 0.11 93 1021.2
20220627020916 72 0.0 0.0 0.02 0.10 0.10 93 1021.1
20220627020416 72 0.0 0.0 0.02 0.10 0.10 93 1021.0
20220627015916 72 0.0 0.0 0.03 0.10 0.10 93 1020.9
20220627015416 72 0.0 0.0 0.03 0.10 0.10 93 1020.8
20220627014916 72 0.0 0.0 0.04 0.10 0.10 93 1020.9
20220627014416 72 0.0 0.0 0.05 0.10 0.10 93 1020.9
20220627013916 72 0.0 0.0 0.05 0.10 0.10 93 1020.7
20220627013416 72 0.0 0.0 0.06 0.10 0.10 93 1020.7
20220627012916 72 0.0 0.0 0.06 0.09 0.09 93 1020.8
20220627012416 72 0.0 0.0 0.07 0.09 0.09 92 1020.6
20220627011916 72 0.0 0.0 0.08 0.09 0.09 92 1020.7
20220627011416 72 0.0 0.0 0.07 0.08 0.08 92 1020.5
20220627010916 72 0.0 0.0 0.08 0.08 0.08 92 1020.4
20220627010416 72 0.0 0.0 0.08 0.08 0.08 91 1020.3
20220627005916 73 0.0 0.0 0.07 0.07 0.07 91 1020.7
20220627005416 73 0.0 0.0 0.07 0.07 0.07 91 1021.0
20220627004916 73 0.0 0.0 0.06 0.06 0.06 91 1021.1
20220627004416 73 0.0 0.0 0.05 0.05 0.05 91 1021.2
20220627003916 74 0.0 0.0 0.05 0.05 0.05 91 1021.4
20220627003416 74 0.0 0.0 0.04 0.04 0.04 91 1021.5
20220627002916 74 0.0 0.0 0.03 0.03 0.03 91 1021.5
20220627002416 74 0.0 0.0 0.02 0.02 0.02 91 1021.5
20220627001916 75 0.0 0.0 0.01 0.01 0.01 90 1021.5
20220627001416 75 0.0 0.0 0.01 0.01 0.01 89 1021.5
20220627000916 75 0.0 0.0 0.00 0.00 0.00 89 1021.4
20220627000416 75 0.0 0.0 0.00 0.00 0.00 87 1021.2
20220626235916 76 0.0 0.0 0.00 0.00 0.00 87 1021.1
20220626235416 76 0.0 0.0 0.00 0.00 0.00 86 1021.1
20220626234917 76 0.0 0.0 0.00 0.00 0.00 85 1020.8
20220626234416 76 0.0 0.0 0.00 0.00 0.00 85 1020.8
20220626233916 77 0.0 0.0 0.00 0.00 0.00 83 1020.7
20220626233416 77 0.0 0.0 0.00 0.00 0.00 82 1020.5
20220626232917 78 0.0 0.0 0.00 0.00 0.00 80 1020.3
20220626232416 79 0.0 0.0 0.00 0.00 0.00 77 1020.3
20220626231916 79 0.0 0.0 0.00 0.00 0.00 75 1020.3
20220626231416 80 0.0 0.0 0.00 0.00 0.00 73 1020.1
20220626230916 80 0.0 0.0 0.00 0.00 0.00 72 1020.0
20220626230416 80 0.0 0.0 0.00 0.00 0.00 72 1019.9
20220626225916 80 0.0 0.0 0.00 0.00 0.00 72 1019.7
20220626225417 80 0.0 0.0 0.00 0.00 0.00 71 1019.5
20220626224916 80 0.0 0.0 0.00 0.00 0.00 70 1019.6
20220626224416 80 0.0 0.0 0.00 0.00 0.00 71 1019.6
20220626223916 81 0.0 0.0 0.00 0.00 0.00 71 1019.8
20220626223416 81 0.0 0.0 0.00 0.00 0.00 71 1019.6
20220626222916 81 0.0 0.0 0.00 0.00 0.00 71 1019.4
20220626222417 81 0.0 0.0 0.00 0.00 0.00 70 1019.2
20220626221916 82 0.0 0.0 0.00 0.00 0.00 69 1019.0
20220626221416 82 0.0 0.0 0.00 0.00 0.00 69 1018.8
20220626220916 82 0.0 0.0 0.00 0.00 0.00 67 1018.7
20220626220416 83 0.0 1.0 0.00 0.00 0.00 67 1018.7
20220626215916 83 0.0 0.0 0.00 0.00 0.00 67 1018.5
20220626215417 83 0.0 0.0 0.00 0.00 0.00 68 1018.6
20220626214916 83 0.0 0.0 0.00 0.00 0.00 68 1018.8
20220626214417 84 0.0 0.0 0.00 0.00 0.00 68 1019.0
20220626213916 84 0.0 0.0 0.00 0.00 0.00 66 1019.0
20220626213416 84 0.0 1.0 0.00 0.00 0.00 66 1019.2
20220626212916 84 135 1.0 3.0 0.00 0.00 0.00 66 1019.1
20220626212417 85 0.0 0.0 0.00 0.00 0.00 65 1019.1
20220626211916 84 0.0 0.0 0.00 0.00 0.00 65 1019.0
20220626211416 84 0.0 1.0 0.00 0.00 0.00 65 1019.0
20220626210917 84 0.0 1.0 0.00 0.00 0.00 65 1019.2
20220626210416 85 0.0 0.0 0.00 0.00 0.00 65 1019.3
20220626205916 85 0.0 0.0 0.00 0.00 0.00 65 1019.4
20220626205417 85 90 2.0 3.0 0.00 0.00 0.00 65 1019.4
20220626204917 84 90 1.0 4.0 0.00 0.00 0.00 66 1019.5
20220626204416 84 135 2.0 3.0 0.00 0.00 0.00 66 1019.6
20220626203916 84 68 1.0 2.0 0.00 0.00 0.00 67 1019.7
20220626203417 83 0.0 0.0 0.00 0.00 0.00 67 1019.9
20220626202917 83 225 1.0 1.0 0.00 0.00 0.00 66 1020.1
20220626202416 84 0.0 0.0 0.00 0.00 0.00 68 1020.1
20220626201916 83 0.0 0.0 0.00 0.00 0.00 68 1020.2
20220626201416 83 225 1.0 1.0 0.00 0.00 0.00 68 1020.5
20220626200916 83 0.0 0.0 0.00 0.00 0.00 68 1020.5
20220626200416 82 0.0 0.0 0.00 0.00 0.00 70 1020.5
20220626195916 82 0.0 0.0 0.00 0.00 0.00 70 1020.6
20220626195416 82 0.0 0.0 0.00 0.00 0.00 70 1020.6
20220626194917 82 0.0 0.0 0.00 0.00 0.00 71 1020.9
20220626194417 81 0.0 0.0 0.00 0.00 0.00 70 1021.0
20220626193916 81 0.0 0.0 0.00 0.00 0.00 70 1021.0
20220626193416 81 0.0 0.0 0.00 0.00 0.00 70 1020.9
20220626192916 81 0.0 0.0 0.00 0.00 0.00 70 1021.1
20220626192417 81 0.0 0.0 0.00 0.00 0.00 70 1021.0
20220626191916 82 0.0 0.0 0.00 0.00 0.00 70 1020.9
20220626191416 82 0.0 0.0 0.00 0.00 0.00 70 1021.0
20220626190916 82 0.0 0.0 0.00 0.00 0.00 69 1020.9
20220626190416 81 0.0 0.0 0.00 0.00 0.00 69 1020.9
20220626185916 82 0.0 0.0 0.00 0.00 0.00 70 1021.0
20220626185416 82 0.0 0.0 0.00 0.00 0.00 70 1021.1
20220626184916 82 0.0 0.0 0.00 0.00 0.00 70 1021.1
20220626184416 82 0.0 0.0 0.00 0.00 0.00 69 1021.1
20220626183916 82 0.0 0.0 0.00 0.00 0.00 68 1021.2
20220626183416 82 0.0 0.0 0.00 0.00 0.00 70 1021.3
20220626182916 82 0.0 0.0 0.00 0.00 0.00 68 1021.3
20220626182416 82 0.0 0.0 0.00 0.00 0.00 68 1021.4
20220626181916 82 0.0 0.0 0.00 0.00 0.00 67 1021.4
20220626181416 82 0.0 0.0 0.00 0.00 0.00 68 1021.5
20220626180916 82 0.0 0.0 0.00 0.00 0.00 67 1021.6
20220626180416 82 0.0 0.0 0.00 0.00 0.00 67 1021.7
20220626175916 82 0.0 0.0 0.00 0.00 0.00 67 1021.7
20220626175416 82 0.0 0.0 0.00 0.00 0.00 67 1021.7
20220626174916 82 0.0 0.0 0.00 0.00 0.00 67 1021.9
20220626174416 82 0.0 0.0 0.00 0.00 0.00 67 1021.9
20220626173916 82 0.0 0.0 0.00 0.00 0.00 67 1022.1
20220626173416 82 0.0 0.0 0.00 0.00 0.00 67 1022.1
20220626172916 82 0.0 0.0 0.00 0.00 0.00 66 1022.1
20220626172416 82 90 1.0 2.0 0.00 0.00 0.00 65 1022.2
20220626171916 82 0.0 1.0 0.00 0.00 0.00 64 1022.3
20220626171417 82 0.0 0.0 0.00 0.00 0.00 65 1022.3
20220626170916 82 0.0 0.0 0.00 0.00 0.00 64 1022.3
20220626170416 82 0.0 0.0 0.00 0.00 0.00 63 1022.3
20220626165916 82 113 1.0 3.0 0.00 0.00 0.00 63 1022.3
20220626165416 82 0.0 1.0 0.00 0.00 0.00 63 1022.4
20220626164916 82 0.0 0.0 0.00 0.00 0.00 62 1022.3
20220626164416 82 0.0 0.0 0.00 0.00 0.00 64 1022.4
20220626163916 82 0.0 0.0 0.00 0.00 0.00 64 1022.4
20220626163416 82 0.0 0.0 0.00 0.00 0.00 63 1022.2
20220626162916 82 0.0 0.0 0.00 0.00 0.00 65 1022.2
20220626162415 82 0.0 0.0 0.00 0.00 0.00 65 1022.2
20220626161916 81 0.0 0.0 0.00 0.00 0.00 66 1022.3
20220626161416 81 0.0 0.0 0.00 0.00 0.00 66 1022.4
20220626160916 81 0.0 0.0 0.00 0.00 0.00 66 1022.4
20220626160416 81 0.0 0.0 0.00 0.00 0.00 66 1022.5
20220626155916 81 0.0 0.0 0.00 0.00 0.00 66 1022.6
20220626155416 81 0.0 1.0 0.00 0.00 0.00 64 1022.6
20220626154916 81 0.0 1.0 0.00 0.00 0.00 65 1022.6
20220626154416 81 0.0 0.0 0.00 0.00 0.00 65 1022.6
20220626153916 81 0.0 1.0 0.00 0.00 0.00 66 1022.7
20220626153415 81 0.0 1.0 0.00 0.00 0.00 65 1022.6
20220626152916 81 0.0 0.0 0.00 0.00 0.00 66 1022.6
20220626152416 80 0.0 0.0 0.00 0.00 0.00 69 1022.5
20220626151916 80 0.0 0.0 0.00 0.00 0.00 68 1022.5
20220626151416 80 0.0 0.0 0.00 0.00 0.00 69 1022.4
20220626150915 79 0.0 0.0 0.00 0.00 0.00 69 1022.5
20220626150415 79 0.0 0.0 0.00 0.00 0.00 72 1022.4
20220626145916 79 0.0 0.0 0.00 0.00 0.00 72 1022.4
20220626145416 79 0.0 2.0 0.00 0.00 0.00 72 1022.4
20220626144916 78 0.0 0.0 0.00 0.00 0.00 73 1022.3
20220626144416 78 0.0 0.0 0.00 0.00 0.00 75 1022.3
20220626143916 78 0.0 0.0 0.00 0.00 0.00 74 1022.3
20220626143415 78 0.0 0.0 0.00 0.00 0.00 74 1022.2
20220626142916 78 0.0 0.0 0.00 0.00 0.00 75 1022.2
20220626142415 78 0.0 0.0 0.00 0.00 0.00 75 1022.1
20220626141916 78 0.0 0.0 0.00 0.00 0.00 75 1022.2
20220626141416 77 0.0 0.0 0.00 0.00 0.00 75 1022.2
20220626140916 77 0.0 0.0 0.00 0.00 0.00 75 1022.3
20220626140416 78 0.0 0.0 0.00 0.00 0.00 76 1022.3
20220626135915 77 0.0 0.0 0.00 0.00 0.00 76 1022.3
20220626135415 78 0.0 0.0 0.00 0.00 0.00 75 1022.3
20220626134916 78 0.0 0.0 0.00 0.00 0.00 76 1022.2
20220626134416 78 0.0 0.0 0.00 0.00 0.00 76 1022.2
20220626133916 78 0.0 0.0 0.00 0.00 0.00 76 1022.2
20220626133416 78 0.0 0.0 0.00 0.00 0.00 76 1022.2
20220626132915 78 0.0 0.0 0.00 0.00 0.00 76 1022.2
20220626132416 78 0.0 0.0 0.00 0.00 0.00 76 1022.3
20220626131917 78 0.0 1.0 0.00 0.00 0.00 76 1022.2
20220626131415 77 0.0 0.0 0.00 0.00 0.00 76 1022.1
20220626130916 77 0.0 0.0 0.00 0.00 0.00 77 1022.1
20220626130415 77 0.0 0.0 0.00 0.00 0.00 77 1022.2
20220626125915 77 0.0 0.0 0.00 0.00 0.00 77 1022.1
20220626125415 77 0.0 0.0 0.00 0.00 0.00 77 1021.9
20220626124915 77 0.0 0.0 0.00 0.00 0.00 77 1021.9
20220626124417 77 0.0 0.0 0.00 0.00 0.00 78 1021.8
20220626123915 77 0.0 0.0 0.00 0.00 0.00 78 1021.8
20220626123415 77 0.0 0.0 0.00 0.00 0.00 78 1021.9
20220626122916 77 0.0 0.0 0.00 0.00 0.00 79 1021.8
20220626122416 76 0.0 0.0 0.00 0.00 0.00 79 1021.8
20220626121916 76 0.0 0.0 0.00 0.00 0.00 80 1021.7
20220626121415 76 0.0 0.0 0.00 0.00 0.00 80 1021.7
20220626120916 76 0.0 0.0 0.00 0.00 0.00 81 1021.6
20220626120416 76 0.0 0.0 0.00 0.00 0.00 81 1021.7
20220626115915 76 0.0 0.0 0.00 0.00 0.00 81 1021.7
20220626115415 76 0.0 0.0 0.00 0.00 0.00 82 1021.7
20220626114916 76 0.0 0.0 0.00 0.00 0.00 82 1021.6
20220626114415 76 0.0 0.0 0.00 0.00 0.00 82 1021.6
20220626113915 75 0.0 0.0 0.00 0.00 0.00 82 1021.5
20220626113415 75 0.0 0.0 0.00 0.00 0.00 83 1021.5
20220626112915 75 0.0 0.0 0.00 0.00 0.00 83 1021.4
20220626112415 75 0.0 0.0 0.00 0.00 0.00 83 1021.4
20220626111916 75 0.0 0.0 0.00 0.00 0.00 83 1021.5
20220626111416 75 0.0 0.0 0.00 0.00 0.00 83 1021.3
20220626110915 75 0.0 0.0 0.00 0.00 0.00 83 1021.4
20220626110415 75 0.0 0.0 0.00 0.00 0.00 83 1021.3
20220626105926 75 0.0 0.0 0.00 0.00 0.00 83 1021.4
20220626105715 75 0.0 0.0 0.00 0.00 0.00 84 1021.5
20220626105215 75 0.0 0.0 0.00 0.00 0.00 84 1021.5
20220626104715 75 0.0 0.0 0.00 0.00 0.00 84 1021.6
20220626104215 75 0.0 0.0 0.00 0.00 0.00 84 1021.6